Time;durP1;ratioP1;P1;durP2;ratioP2;P2;SDS_P1;SDS_P2;PMS_P1;PMS_P2;Temp;Humidity;BMP_temperature;BMP_pressure;BME280_temperature;BME280_humidity;BME280_pressure;Samples;Min_cycle;Max_cycle;Signal;HPM_P1;HPM_P2
2022/06/12 00:02:00;;;;;;;15.90;11.00;;;;;;;14.25;65.66;100685.29;130086;1271;108754;-73
2022/06/12 00:05:06;;;;;;;10.70;8.50;;;;;;;14.19;65.90;100681.46;130095;1271;108786;-74
2022/06/12 00:08:12;;;;;;;9.80;7.80;;;;;;;14.15;65.86;100678.85;130109;1270;108765;-73
2022/06/12 00:11:21;;;;;;;8.10;7.20;;;;;;;14.12;65.89;100681.86;130134;1271;106919;-72
2022/06/12 00:14:26;;;;;;;10.80;7.00;;;;;;;14.08;66.16;100678.54;130180;1271;108255;-73
2022/06/12 00:17:31;;;;;;;10.40;7.60;;;;;;;14.05;66.20;100675.43;130192;1271;108832;-73
2022/06/12 00:20:37;;;;;;;6.50;5.90;;;;;;;14.03;66.01;100679.02;130143;1271;108877;-74
2022/06/12 00:23:45;;;;;;;8.00;6.00;;;;;;;14.01;66.18;100677.10;130270;1269;108869;-73
2022/06/12 00:26:53;;;;;;;7.00;5.90;;;;;;;14.00;66.17;100676.47;130206;1269;108769;-73
2022/06/12 00:29:58;;;;;;;8.20;6.40;;;;;;;14.00;66.22;100676.48;130099;1271;108809;-73
2022/06/12 00:33:05;;;;;;;6.90;6.20;;;;;;;14.00;66.17;100676.38;130104;1271;108746;-73
2022/06/12 00:36:10;;;;;;;6.80;6.10;;;;;;;13.97;66.27;100677.36;130102;1271;108986;-75
2022/06/12 00:39:17;;;;;;;8.70;7.30;;;;;;;13.93;66.38;100677.64;130079;1269;108788;-73
2022/06/12 00:42:26;;;;;;;12.50;9.70;;;;;;;13.91;66.46;100685.73;130232;1271;108782;-74
2022/06/12 00:45:46;;;;;;;13.60;9.00;;;;;;;13.89;66.43;100684.83;130148;1271;108654;-74
2022/06/12 00:48:52;;;;;;;13.90;9.90;;;;;;;13.84;66.50;100681.77;130130;1271;108219;-75
2022/06/12 00:52:00;;;;;;;10.30;7.00;;;;;;;13.80;66.56;100678.43;130160;1271;108637;-74
2022/06/12 00:55:15;;;;;;;8.70;6.30;;;;;;;13.75;66.64;100677.59;130029;1271;108708;-74
2022/06/12 00:58:25;;;;;;;6.20;5.60;;;;;;;13.74;66.68;100671.52;130161;1271;108916;-73
2022/06/12 01:01:34;;;;;;;8.40;6.00;;;;;;;13.78;66.59;100673.37;129896;1271;209592;-75
2022/06/12 01:08:07;;;;;;;6.40;5.80;;;;;;;13.76;66.69;100668.55;130120;1271;108670;-74
2022/06/12 01:11:15;;;;;;;7.10;6.10;;;;;;;13.74;66.60;100671.19;130148;1271;108978;-77
2022/06/12 01:14:25;;;;;;;7.50;6.50;;;;;;;13.73;66.66;100671.44;130106;1271;109240;-76
2022/06/12 01:17:31;;;;;;;7.50;6.30;;;;;;;13.71;66.76;100673.52;130105;1271;108799;-76
2022/06/12 01:20:44;;;;;;;7.50;6.80;;;;;;;13.67;66.67;100669.48;130129;1271;108891;-74
2022/06/12 01:24:29;;;;;;;7.70;6.90;;;;;;;13.64;66.81;100664.11;130075;1271;108756;-74
2022/06/12 01:27:53;;;;;;;7.50;6.70;;;;;;;13.54;66.77;100658.52;130057;1270;108647;-74
2022/06/12 01:31:07;;;;;;;7.80;6.50;;;;;;;13.45;66.82;100660.16;130099;1271;108610;-74
2022/06/12 01:34:38;;;;;;;7.20;6.20;;;;;;;13.37;66.97;100661.20;130124;1270;108846;-74
2022/06/12 01:37:52;;;;;;;7.10;5.50;;;;;;;13.29;66.95;100660.91;130076;1269;108685;-74
2022/06/12 01:41:02;;;;;;;7.60;6.40;;;;;;;13.28;67.08;100660.45;130236;1271;108820;-75
2022/06/12 01:44:18;;;;;;;8.80;6.90;;;;;;;13.31;67.11;100657.36;130102;1271;108858;-74
2022/06/12 01:47:31;;;;;;;7.60;6.80;;;;;;;13.34;67.09;100658.84;130092;1271;108879;-74
2022/06/12 01:50:41;;;;;;;7.80;6.90;;;;;;;13.35;67.12;100654.72;130115;1269;107102;-73
2022/06/12 01:54:00;;;;;;;10.10;6.70;;;;;;;13.31;67.20;100652.80;130068;1271;108700;-73
2022/06/12 01:57:13;;;;;;;10.60;7.40;;;;;;;13.27;67.24;100655.20;130126;1270;108706;-73
2022/06/12 02:00:22;;;;;;;8.80;7.00;;;;;;;13.27;67.30;100652.78;130048;1271;108811;-74
2022/06/12 02:03:32;;;;;;;7.60;6.70;;;;;;;13.26;67.17;100651.80;130126;1271;108960;-73
2022/06/12 02:06:42;;;;;;;11.30;7.40;;;;;;;13.22;67.35;100650.39;130158;1271;108853;-74
2022/06/12 02:09:52;;;;;;;8.60;6.90;;;;;;;13.19;67.32;100653.25;130044;1269;108703;-72
2022/06/12 02:13:14;;;;;;;7.80;6.40;;;;;;;13.17;67.40;100653.27;130071;1269;108931;-73
2022/06/12 02:16:23;;;;;;;7.80;6.00;;;;;;;13.15;67.50;100646.67;130120;1271;106800;-72
2022/06/12 02:19:34;;;;;;;11.00;7.20;;;;;;;13.16;67.36;100650.70;130194;1271;108661;-74
2022/06/12 02:22:43;;;;;;;11.50;7.70;;;;;;;13.20;67.52;100649.00;130145;1270;108781;-73
2022/06/12 02:25:52;;;;;;;10.70;7.10;;;;;;;13.24;67.33;100648.05;130046;1270;109836;-73
2022/06/12 02:29:02;;;;;;;10.10;7.10;;;;;;;13.27;67.41;100648.06;130083;1269;109061;-73
2022/06/12 02:32:15;;;;;;;9.50;7.40;;;;;;;13.28;67.45;100645.83;130048;1271;108913;-73
2022/06/12 02:35:30;;;;;;;8.40;6.90;;;;;;;13.30;67.37;100644.62;130112;1270;108860;-74
2022/06/12 02:38:40;;;;;;;9.70;7.10;;;;;;;13.32;67.57;100641.98;130076;1271;108734;-75
2022/06/12 02:41:50;;;;;;;8.70;7.30;;;;;;;13.34;67.44;100645.17;130166;1270;107635;-73
2022/06/12 02:44:59;;;;;;;8.50;7.30;;;;;;;13.35;67.49;100647.65;130150;1270;107161;-74
2022/06/12 02:48:06;;;;;;;7.70;6.90;;;;;;;13.35;67.64;100648.70;130054;1271;108944;-75
2022/06/12 02:51:18;;;;;;;8.80;6.80;;;;;;;13.36;67.66;100649.14;130110;1271;108852;-75
2022/06/12 02:54:28;;;;;;;;;;;;;;;13.38;67.69;100645.20;130177;1270;108821;-75
2022/06/12 02:57:37;;;;;;;7.80;6.30;;;;;;;13.41;67.72;100645.65;130123;1271;108908;-74
2022/06/12 03:00:50;;;;;;;8.90;7.00;;;;;;;13.50;67.73;100645.77;130190;1271;108604;-73
2022/06/12 03:04:06;;;;;;;9.40;6.90;;;;;;;13.63;68.00;100640.45;130173;1269;107506;-74
2022/06/12 03:07:11;;;;;;;9.10;7.20;;;;;;;13.77;67.99;100642.13;130170;1271;108806;-74
2022/06/12 03:10:22;;;;;;;9.90;7.00;;;;;;;13.89;67.99;100643.14;130192;1270;108934;-74
2022/06/12 03:13:30;;;;;;;9.50;7.00;;;;;;;13.99;68.14;100642.86;130159;1270;108668;-76
2022/06/12 03:16:37;;;;;;;8.50;7.40;;;;;;;14.07;68.12;100643.89;130164;1268;108764;-75
2022/06/12 03:19:51;;;;;;;9.00;7.80;;;;;;;14.18;68.21;100644.83;130129;1271;108907;-75
2022/06/12 03:23:21;;;;;;;8.30;7.40;;;;;;;14.26;68.19;100644.52;130229;1271;107686;-75
2022/06/12 03:26:36;;;;;;;9.00;7.20;;;;;;;14.38;68.48;100647.74;130183;1271;107690;-72
2022/06/12 03:29:54;;;;;;;7.90;6.80;;;;;;;14.50;68.71;100647.05;130071;1270;109040;-74
2022/06/12 03:33:08;;;;;;;8.30;6.30;;;;;;;14.78;68.87;100635.21;130124;1271;108638;-73
2022/06/12 03:36:19;;;;;;;7.80;6.40;;;;;;;15.16;68.64;100635.46;130175;1269;108720;-75
2022/06/12 03:39:29;;;;;;;11.10;6.80;;;;;;;15.57;68.78;100631.88;130187;1271;108754;-75
2022/06/12 03:42:39;;;;;;;8.40;7.20;;;;;;;16.05;68.52;100631.20;130291;1271;108606;-76
2022/06/12 03:45:48;;;;;;;15.80;11.60;;;;;;;16.51;68.44;100629.23;130116;1270;108675;-77
2022/06/12 03:49:00;;;;;;;32.70;21.80;;;;;;;16.93;68.34;100624.05;130171;1270;108666;-77
2022/06/12 03:52:14;;;;;;;29.50;20.90;;;;;;;17.32;68.31;100628.84;130215;1271;108560;-75
2022/06/12 03:58:56;;;;;;;15.20;11.40;;;;;;;18.00;68.30;100632.52;130294;1271;108648;-75
2022/06/12 04:02:03;;;;;;;9.10;7.70;;;;;;;18.33;68.24;100630.19;130150;1271;108884;-74
2022/06/12 04:05:15;;;;;;;6.80;6.10;;;;;;;18.62;68.27;100629.59;130225;1271;108707;-75
2022/06/12 04:08:23;;;;;;;7.70;5.50;;;;;;;18.93;68.25;100628.33;130160;1271;108685;-76
2022/06/12 04:11:31;;;;;;;5.90;5.30;;;;;;;19.19;68.26;100629.64;130188;1270;107662;-76
2022/06/12 04:14:42;;;;;;;5.80;5.20;;;;;;;19.38;68.18;100623.84;130141;1271;109012;-77
2022/06/12 04:17:47;;;;;;;6.50;4.30;;;;;;;19.62;68.11;100624.94;130122;1271;108937;-74
2022/06/12 04:20:57;;;;;;;5.70;4.60;;;;;;;19.78;67.91;100631.92;130130;1271;108850;-76
2022/06/12 04:24:10;;;;;;;5.20;4.40;;;;;;;19.98;68.12;100630.09;130114;1270;108993;-76
2022/06/12 04:27:21;;;;;;;5.60;4.90;;;;;;;20.22;68.17;100630.83;130245;1270;108852;-75
2022/06/12 04:30:26;;;;;;;;;;;;;;;20.37;67.96;100633.67;130187;1271;108662;-75
2022/06/12 04:33:57;;;;;;;5.50;4.40;;;;;;;20.35;67.83;100636.26;130157;1270;108761;-76
2022/06/12 04:37:09;;;;;;;6.50;4.20;;;;;;;20.34;67.72;100638.05;130168;1270;108823;-77
2022/06/12 04:40:27;;;;;;;6.90;4.50;;;;;;;20.43;67.69;100638.05;130173;1269;108725;-77
2022/06/12 04:43:34;;;;;;;5.90;4.60;;;;;;;20.45;67.63;100635.51;130163;1271;108697;-75
2022/06/12 04:46:41;;;;;;;5.00;4.10;;;;;;;20.44;67.62;100638.88;130145;1270;108711;-74
2022/06/12 04:49:48;;;;;;;5.00;4.50;;;;;;;20.44;67.48;100646.27;130150;1271;108706;-74
2022/06/12 04:52:53;;;;;;;7.70;4.40;;;;;;;20.48;67.49;100642.30;130178;1270;107735;-75
2022/06/12 04:55:59;;;;;;;4.90;3.70;;;;;;;20.52;67.46;100640.67;130148;1271;107699;-75
2022/06/12 04:59:05;;;;;;;6.00;4.20;;;;;;;20.53;67.26;100642.79;130170;1271;109008;-78
2022/06/12 05:02:11;;;;;;;5.30;4.50;;;;;;;20.55;67.22;100647.42;130198;1270;108511;-74
2022/06/12 05:05:16;;;;;;;5.50;4.10;;;;;;;20.53;67.20;100649.30;130071;1270;108906;-76
2022/06/12 05:08:22;;;;;;;6.60;4.40;;;;;;;20.55;67.32;100651.02;130029;1270;108681;-72
2022/06/12 05:11:28;;;;;;;5.30;4.30;;;;;;;20.62;67.40;100648.33;129981;1270;108706;-72
2022/06/12 05:14:34;;;;;;;5.00;4.40;;;;;;;20.75;67.38;100647.79;130057;1270;108567;-74
2022/06/12 05:17:46;;;;;;;6.50;4.90;;;;;;;20.91;67.08;100644.96;130048;1270;108848;-77
2022/06/12 05:20:51;;;;;;;6.00;4.00;;;;;;;20.97;67.07;100647.71;130087;1270;108657;-75
2022/06/12 05:23:57;;;;;;;7.30;5.00;;;;;;;21.15;67.22;100651.75;130017;1270;108652;-76
2022/06/12 05:27:04;;;;;;;5.90;4.40;;;;;;;21.30;67.01;100654.00;130054;1269;108738;-75
2022/06/12 05:30:13;;;;;;;5.20;4.60;;;;;;;21.45;66.97;100654.88;130064;1270;108827;-77
2022/06/12 05:33:18;;;;;;;6.60;5.30;;;;;;;21.61;66.89;100651.52;130263;1271;108796;-71
2022/06/12 05:36:24;;;;;;;7.20;5.10;;;;;;;21.76;66.75;100647.73;130103;1270;109129;-79
2022/06/12 05:39:30;;;;;;;7.10;4.70;;;;;;;21.88;66.51;100654.38;130342;1270;108747;-78
2022/06/12 05:42:35;;;;;;;7.40;5.00;;;;;;;22.03;66.30;100648.69;130291;1270;108801;-80
2022/06/12 05:45:40;;;;;;;6.60;4.60;;;;;;;22.17;66.19;100648.43;130291;1270;108963;-78
2022/06/12 05:48:46;;;;;;;6.60;4.10;;;;;;;22.42;66.16;100639.77;130198;1270;108864;-80
2022/06/12 05:51:52;;;;;;;5.30;4.80;;;;;;;22.68;65.99;100639.46;130241;1270;108657;-79
2022/06/12 05:54:57;;;;;;;5.60;4.30;;;;;;;22.88;65.77;100634.73;129946;1271;108661;-76
2022/06/12 05:58:02;;;;;;;6.30;4.40;;;;;;;23.10;65.61;100633.98;129982;1270;108518;-76
2022/06/12 06:01:10;;;;;;;5.70;4.50;;;;;;;23.33;65.59;100635.82;130044;1270;108752;-76
2022/06/12 06:04:16;;;;;;;4.70;4.30;;;;;;;23.41;65.10;100637.95;130101;1270;108679;-76
2022/06/12 06:07:21;;;;;;;5.50;4.50;;;;;;;23.40;65.11;100642.56;130185;1270;108507;-76
2022/06/12 06:10:29;;;;;;;6.50;5.00;;;;;;;23.45;65.00;100646.48;130277;1270;109122;-77
2022/06/12 06:13:36;;;;;;;6.20;4.40;;;;;;;23.58;64.66;100649.77;130186;1270;109208;-75
2022/06/12 06:16:42;;;;;;;8.10;4.80;;;;;;;23.72;64.46;100649.83;130038;1270;109497;-75
2022/06/12 06:19:48;;;;;;;6.70;4.40;;;;;;;23.87;64.22;100652.02;130023;1270;108766;-75
2022/06/12 06:22:54;;;;;;;4.90;4.40;;;;;;;23.99;64.09;100650.23;130003;1270;108672;-75
2022/06/12 06:25:59;;;;;;;4.90;4.10;;;;;;;24.08;63.98;100649.55;130103;1270;108676;-78
2022/06/12 06:29:06;;;;;;;4.90;4.00;;;;;;;24.12;63.76;100648.36;130082;1270;107412;-78
2022/06/12 06:32:12;;;;;;;5.80;4.40;;;;;;;24.16;63.66;100646.45;130023;1270;108691;-77
2022/06/12 06:35:18;;;;;;;5.50;4.00;;;;;;;24.24;63.47;100648.94;130068;1270;108682;-77
2022/06/12 06:38:23;;;;;;;5.40;3.50;;;;;;;24.30;63.31;100651.39;130308;1271;108668;-74
2022/06/12 06:41:28;;;;;;;5.20;4.10;;;;;;;24.37;63.17;100648.55;130151;1270;108786;-74
2022/06/12 06:47:57;;;;;;;4.80;3.70;;;;;;;24.49;62.71;100649.57;130236;1271;108847;-77
2022/06/12 06:51:02;;;;;;;8.60;3.50;;;;;;;24.55;62.66;100645.02;130200;1270;108949;-78
2022/06/12 06:54:07;;;;;;;5.00;3.60;;;;;;;24.60;62.47;100644.88;130188;1270;108082;-81
2022/06/12 06:57:13;;;;;;;3.70;3.20;;;;;;;24.67;62.14;100639.65;130023;1270;109174;-74
2022/06/12 07:00:22;;;;;;;5.80;3.20;;;;;;;24.78;61.54;100638.52;130136;1270;108801;-78
2022/06/12 07:03:28;;;;;;;4.30;3.00;;;;;;;24.87;61.58;100634.02;130200;1270;108646;-80
2022/06/12 07:06:34;;;;;;;3.90;3.10;;;;;;;24.94;61.33;100632.55;130302;1270;108665;-77
2022/06/12 07:09:40;;;;;;;3.10;2.50;;;;;;;24.99;61.01;100633.04;130179;1270;108454;-75
2022/06/12 07:12:46;;;;;;;3.30;2.40;;;;;;;24.98;60.31;100634.07;130222;1271;108944;-81
2022/06/12 07:15:52;;;;;;;3.40;2.50;;;;;;;24.97;59.98;100630.81;130232;1271;108919;-83
2022/06/12 07:18:57;;;;;;;5.30;3.60;;;;;;;24.86;59.55;100631.23;130301;1271;108959;-82
2022/06/12 07:22:03;;;;;;;4.20;3.30;;;;;;;24.81;60.27;100625.54;130277;1270;108489;-83
2022/06/12 07:25:11;;;;;;;4.80;2.90;;;;;;;24.78;59.65;100631.00;130252;1270;108850;-75
2022/06/12 07:28:16;;;;;;;3.60;2.60;;;;;;;24.66;59.13;100621.17;130844;1270;108957;-78
2022/06/12 07:31:23;;;;;;;4.30;2.40;;;;;;;24.62;59.72;100624.23;130258;1270;108780;-77
2022/06/12 07:34:29;;;;;;;4.80;3.20;;;;;;;24.69;59.46;100622.84;130841;1270;108692;-77
2022/06/12 07:37:36;;;;;;;4.80;3.00;;;;;;;24.82;58.78;100621.90;130225;1269;109510;-76
2022/06/12 07:40:46;;;;;;;3.80;2.80;;;;;;;24.78;57.36;100619.36;130262;1271;107606;-77
2022/06/12 07:43:52;;;;;;;3.30;2.70;;;;;;;24.62;57.47;100624.02;130203;1270;108696;-77
2022/06/12 07:46:59;;;;;;;5.10;3.10;;;;;;;24.59;57.44;100618.88;130193;1271;108611;-79
2022/06/12 07:50:05;;;;;;;6.90;4.60;;;;;;;24.57;58.09;100617.86;130418;1271;108748;-79
2022/06/12 07:53:12;;;;;;;5.60;2.50;;;;;;;24.56;56.42;100619.73;130224;1271;107390;-77
2022/06/12 07:56:19;;;;;;;5.90;5.30;;;;;;;24.40;54.48;100619.59;130386;1271;108678;-83
2022/06/12 07:59:25;;;;;;;4.20;3.20;;;;;;;24.38;56.72;100619.31;130459;1271;108845;-80
2022/06/12 08:02:30;;;;;;;9.20;8.10;;;;;;;24.49;55.91;100620.36;131169;1270;108841;-80
2022/06/12 08:05:36;;;;;;;8.70;7.40;;;;;;;24.61;56.75;100617.11;131131;1269;108680;-80
2022/06/12 08:08:41;;;;;;;7.80;6.20;;;;;;;24.71;56.71;100614.63;130731;1270;108711;-77
2022/06/12 08:11:50;;;;;;;16.30;13.70;;;;;;;24.66;56.54;100617.02;130240;1271;108521;-79
2022/06/12 08:14:55;;;;;;;4.90;4.40;;;;;;;24.64;56.07;100613.70;130216;1270;108731;-79
2022/06/12 08:18:00;;;;;;;4.80;4.30;;;;;;;24.68;56.28;100607.67;130269;1269;108656;-81
2022/06/12 08:21:10;;;;;;;3.50;3.00;;;;;;;24.76;55.65;100609.20;130423;1271;108872;-79
2022/06/12 08:24:15;;;;;;;4.10;2.90;;;;;;;24.77;54.71;100609.23;130202;1269;109643;-78
2022/06/12 08:27:20;;;;;;;3.70;3.00;;;;;;;24.71;53.01;100610.64;130350;1269;108808;-80
2022/06/12 08:30:26;;;;;;;3.80;3.10;;;;;;;24.56;52.18;100612.09;130185;1269;108867;-76
2022/06/12 08:33:32;;;;;;;4.00;2.60;;;;;;;24.45;52.17;100616.17;130212;1269;108884;-79
2022/06/12 08:36:39;;;;;;;4.20;3.50;;;;;;;24.47;52.45;100613.16;130228;1271;108850;-79
2022/06/12 08:39:45;;;;;;;6.70;4.10;;;;;;;24.56;53.55;100611.94;130248;1271;108185;-79
2022/06/12 08:42:57;;;;;;;4.00;3.50;;;;;;;24.74;53.56;100611.20;130220;1271;108743;-79
2022/06/12 08:46:17;;;;;;;3.40;3.10;;;;;;;24.97;53.93;100605.81;130210;1271;108729;-80
2022/06/12 08:49:29;;;;;;;4.30;2.80;;;;;;;25.06;51.35;100607.36;130275;1271;107809;-79
2022/06/12 08:52:40;;;;;;;4.80;4.20;;;;;;;25.09;52.87;100603.00;130269;1271;108623;-79
2022/06/12 08:55:49;;;;;;;3.10;2.80;;;;;;;25.32;53.43;100603.79;130155;1270;108851;-80
2022/06/12 08:59:04;;;;;;;3.60;2.90;;;;;;;25.48;49.89;100601.41;130249;1271;108447;-77
2022/06/12 09:02:21;;;;;;;4.30;2.60;;;;;;;25.40;48.43;100598.58;130249;1270;109236;-78
2022/06/12 09:05:46;;;;;;;3.50;2.60;;;;;;;25.53;50.65;100595.83;130203;1271;108785;-79
2022/06/12 09:08:58;;;;;;;3.80;2.80;;;;;;;25.56;49.49;100599.26;130204;1271;108959;-78
2022/06/12 09:12:13;;;;;;;3.10;2.70;;;;;;;25.54;50.45;100595.52;130214;1271;108870;-78
2022/06/12 09:15:32;;;;;;;3.20;2.90;;;;;;;25.42;48.34;100596.38;130229;1269;108724;-79
2022/06/12 09:18:51;;;;;;;3.90;2.90;;;;;;;25.26;47.71;100597.91;130244;1269;108734;-77
2022/06/12 09:22:09;;;;;;;3.90;3.10;;;;;;;25.28;49.41;100592.45;130148;1271;108735;-76
2022/06/12 09:25:23;;;;;;;3.30;3.00;;;;;;;25.42;48.58;100591.68;130181;1271;107671;-78
2022/06/12 09:28:39;;;;;;;4.50;3.20;;;;;;;25.36;48.71;100587.79;130179;1270;108651;-77
2022/06/12 09:31:54;;;;;;;4.30;2.90;;;;;;;25.33;47.66;100592.65;130339;1269;108836;-80
2022/06/12 09:35:10;;;;;;;4.40;3.30;;;;;;;25.29;48.09;100591.27;130224;1271;108692;-80
2022/06/12 09:38:30;;;;;;;3.70;3.40;;;;;;;25.41;48.88;100588.56;130203;1270;108944;-77
2022/06/12 09:41:45;;;;;;;4.40;3.60;;;;;;;25.65;47.16;100589.13;130119;1270;108737;-78
2022/06/12 09:44:56;;;;;;;3.80;3.20;;;;;;;25.61;47.96;100583.95;130252;1269;108780;-77
2022/06/12 09:48:14;;;;;;;4.30;3.90;;;;;;;25.76;48.24;100582.05;130263;1271;108698;-76
2022/06/12 09:51:29;;;;;;;4.30;3.90;;;;;;;25.97;47.83;100581.84;130200;1271;108874;-77
2022/06/12 09:54:51;;;;;;;4.10;3.70;;;;;;;25.96;47.64;100578.54;130166;1271;108795;-77
2022/06/12 09:58:02;;;;;;;5.00;3.60;;;;;;;25.90;46.94;100582.58;130209;1270;110715;-74
2022/06/12 10:01:14;;;;;;;4.70;3.90;;;;;;;25.73;47.14;100579.91;130276;1270;108837;-78
2022/06/12 10:04:24;;;;;;;5.00;3.50;;;;;;;25.61;47.71;100580.89;130185;1270;108884;-76
2022/06/12 10:07:37;;;;;;;4.50;3.60;;;;;;;25.53;47.22;100576.48;130176;1271;108724;-77
2022/06/12 10:10:45;;;;;;;5.10;4.00;;;;;;;25.28;47.77;100580.55;130183;1270;108535;-77
2022/06/12 10:13:56;;;;;;;5.70;4.10;;;;;;;25.16;48.36;100577.86;130213;1270;108912;-77
2022/06/12 10:17:07;;;;;;;6.00;5.40;;;;;;;25.06;49.17;100577.54;130285;1271;108735;-78
2022/06/12 10:20:20;;;;;;;6.20;5.40;;;;;;;24.86;49.76;100577.94;130222;1269;109073;-80
2022/06/12 10:23:25;;;;;;;6.90;6.10;;;;;;;24.65;50.30;100575.69;130225;1270;109074;-81
2022/06/12 10:26:34;;;;;;;6.60;6.00;;;;;;;24.41;51.12;100576.73;130215;1271;108889;-79
2022/06/12 10:29:50;;;;;;;7.80;6.50;;;;;;;24.21;52.03;100576.23;130286;1269;108854;-78
2022/06/12 10:32:58;;;;;;;8.50;6.80;;;;;;;24.05;52.41;100571.67;130335;1270;108731;-78
2022/06/12 10:36:05;;;;;;;7.80;6.90;;;;;;;23.85;52.82;100572.99;130203;1270;109216;-79
2022/06/12 10:39:16;;;;;;;9.30;6.60;;;;;;;23.86;53.06;100565.92;130226;1271;108677;-77
2022/06/12 10:42:42;;;;;;;7.30;6.60;;;;;;;23.90;52.86;100562.38;130270;1271;108694;-78
2022/06/12 10:45:59;;;;;;;7.20;6.50;;;;;;;24.04;53.30;100554.38;130262;1271;108728;-78
2022/06/12 10:49:07;;;;;;;7.50;6.70;;;;;;;24.24;53.32;100550.63;130288;1269;107697;-78
2022/06/12 10:52:20;;;;;;;8.20;6.60;;;;;;;24.41;53.22;100547.40;130268;1270;107665;-79
2022/06/12 10:55:42;;;;;;;10.30;9.20;;;;;;;24.53;52.75;100540.62;130249;1271;108615;-78
2022/06/12 10:59:03;;;;;;;11.30;7.90;;;;;;;24.47;52.12;100537.29;130265;1270;108700;-79
2022/06/12 11:02:38;;;;;;;7.80;6.30;;;;;;;24.36;52.37;100533.53;130281;1270;108496;-77
2022/06/12 11:06:03;;;;;;;6.60;6.00;;;;;;;24.41;52.13;100534.64;130312;1271;108714;-78
2022/06/12 11:09:21;;;;;;;6.40;5.60;;;;;;;24.49;52.37;100523.65;131429;1271;107600;-77
2022/06/12 11:12:43;;;;;;;6.80;5.60;;;;;;;24.52;51.89;100518.65;130216;1271;108824;-77
2022/06/12 11:16:06;;;;;;;6.40;5.50;;;;;;;24.49;51.88;100516.98;130326;1271;108901;-79
2022/06/12 11:19:26;;;;;;;7.80;6.30;;;;;;;24.44;51.76;100517.41;130361;1271;108421;-76
2022/06/12 11:22:40;;;;;;;6.40;5.00;;;;;;;24.35;51.71;100513.10;130320;1270;106974;-77
2022/06/12 11:26:15;;;;;;;7.80;5.80;;;;;;;24.36;51.85;100511.00;130337;1269;108678;-80
2022/06/12 11:29:36;;;;;;;7.80;5.30;;;;;;;24.41;52.23;100508.88;130360;1271;108763;-78
2022/06/12 11:32:58;;;;;;;7.00;6.00;;;;;;;24.53;52.85;100507.16;130277;1271;109055;-77
2022/06/12 11:36:16;;;;;;;5.70;5.10;;;;;;;24.47;51.35;100503.35;130379;1269;109141;-77
2022/06/12 11:39:27;;;;;;;5.70;4.70;;;;;;;24.42;50.91;100501.59;130184;1271;108908;-78
2022/06/12 11:42:47;;;;;;;5.10;4.30;;;;;;;24.43;51.20;100501.45;130279;1270;108106;-77
2022/06/12 11:46:13;;;;;;;4.60;4.10;;;;;;;24.35;50.66;100496.97;131220;1270;108789;-74
2022/06/12 11:49:32;;;;;;;6.30;4.80;;;;;;;24.43;50.91;100500.31;130277;1270;108789;-74
2022/06/12 11:52:49;;;;;;;5.00;4.50;;;;;;;24.39;51.14;100491.42;130163;1271;108799;-76
2022/06/12 11:56:01;;;;;;;5.70;4.10;;;;;;;24.45;50.34;100489.58;130164;1271;108916;-78
2022/06/12 11:59:22;;;;;;;5.00;4.40;;;;;;;24.44;50.00;100485.95;130175;1271;108736;-81
2022/06/12 12:02:48;;;;;;;5.00;4.20;;;;;;;24.43;49.65;100475.42;130147;1272;108730;-79
2022/06/12 12:06:03;;;;;;;5.00;4.00;;;;;;;24.44;49.63;100474.52;130409;1271;108993;-78
2022/06/12 12:09:22;;;;;;;6.00;4.00;;;;;;;24.51;50.22;100472.35;130415;1271;108119;-81
2022/06/12 12:12:32;;;;;;;5.50;4.10;;;;;;;24.63;51.00;100468.48;130554;1271;108871;-81
2022/06/12 12:15:47;;;;;;;4.80;4.10;;;;;;;24.76;51.23;100464.52;130302;1271;108717;-79
2022/06/12 12:18:58;;;;;;;5.30;4.10;;;;;;;24.80;49.76;100464.44;130185;1271;108923;-80
2022/06/12 12:22:08;;;;;;;4.80;3.60;;;;;;;24.71;50.05;100453.34;130375;1271;108720;-89
2022/06/12 12:25:24;;;;;;;4.10;3.60;;;;;;;24.77;50.13;100450.02;130366;1271;108947;-80
2022/06/12 12:28:38;;;;;;;4.40;3.90;;;;;;;24.85;49.69;100456.09;130282;1271;108919;-81
2022/06/12 12:31:46;;;;;;;5.50;4.70;;;;;;;24.89;49.55;100453.45;130166;1271;109144;-79
2022/06/12 12:34:55;;;;;;;4.80;3.60;;;;;;;24.89;48.65;100456.93;130165;1271;108743;-80
2022/06/12 12:41:39;;;;;;;5.50;3.90;;;;;;;24.93;49.69;100448.92;130214;1271;108583;-79
2022/06/12 12:44:46;;;;;;;4.40;3.60;;;;;;;24.86;48.85;100448.35;130206;1271;107286;-77
2022/06/12 12:48:01;;;;;;;4.90;3.90;;;;;;;24.86;49.14;100447.05;130340;1271;108596;-76
2022/06/12 12:51:06;;;;;;;5.50;3.70;;;;;;;24.91;48.95;100442.07;130183;1271;108709;-76
2022/06/12 12:54:15;;;;;;;6.80;4.30;;;;;;;24.94;48.28;100441.67;130227;1271;108577;-77
2022/06/12 12:57:33;;;;;;;5.80;3.70;;;;;;;24.93;47.31;100443.84;130196;1271;108771;-77
2022/06/12 13:00:38;;;;;;;4.60;3.30;;;;;;;24.92;48.10;100439.85;129909;1271;413571;-77
2022/06/12 13:03:47;;;;;;;3.70;3.30;;;;;;;24.96;48.24;100434.14;130287;1271;108868;-73
2022/06/12 13:07:16;;;;;;;4.30;3.60;;;;;;;25.05;47.87;100435.99;130209;1271;108793;-73
2022/06/12 13:10:50;;;;;;;3.80;3.30;;;;;;;25.03;47.49;100432.57;130206;1271;108959;-76
2022/06/12 13:14:11;;;;;;;4.10;3.60;;;;;;;25.02;47.68;100425.36;130202;1271;108900;-82
2022/06/12 13:17:30;;;;;;;3.80;3.10;;;;;;;25.07;47.22;100426.80;130312;1271;108731;-80
2022/06/12 13:20:57;;;;;;;3.70;3.40;;;;;;;25.01;46.67;100433.36;130315;1271;108746;-76
2022/06/12 13:24:22;;;;;;;5.30;3.60;;;;;;;24.96;47.22;100436.05;130313;1270;107786;-76
2022/06/12 13:27:31;;;;;;;4.10;3.70;;;;;;;24.98;47.62;100431.08;130372;1270;108788;-76
2022/06/12 13:30:41;;;;;;;4.00;3.60;;;;;;;25.08;47.87;100428.29;130383;1271;108955;-75
2022/06/12 13:33:54;;;;;;;4.20;3.80;;;;;;;25.14;47.39;100434.52;130159;1270;108828;-75
2022/06/12 13:37:01;;;;;;;4.20;3.50;;;;;;;25.19;47.11;100430.90;130189;1271;108645;-75
2022/06/12 13:40:25;;;;;;;4.70;3.30;;;;;;;25.17;46.65;100429.39;130355;1270;108750;-79
2022/06/12 13:43:37;;;;;;;4.00;3.50;;;;;;;25.17;47.13;100425.61;130216;1270;108932;-79
2022/06/12 13:46:43;;;;;;;4.80;3.30;;;;;;;25.19;46.50;100428.50;130203;1270;107751;-76
2022/06/12 13:49:53;;;;;;;4.00;3.60;;;;;;;25.06;46.81;100423.34;130210;1270;108093;-79
2022/06/12 13:53:01;;;;;;;3.60;3.30;;;;;;;24.94;47.15;100420.17;130243;1270;108865;-75
2022/06/12 13:56:14;;;;;;;4.10;3.20;;;;;;;25.02;47.35;100420.70;130297;1271;108797;-75
2022/06/12 13:59:23;;;;;;;3.80;3.40;;;;;;;25.16;47.54;100416.31;130391;1270;108691;-75
2022/06/12 14:02:34;;;;;;;3.70;3.40;;;;;;;25.25;46.90;100407.35;130281;1270;108686;-76
2022/06/12 14:05:53;;;;;;;4.30;3.00;;;;;;;25.23;47.23;100402.69;130137;1270;106959;-74
2022/06/12 14:09:03;;;;;;;4.10;3.60;;;;;;;25.25;47.22;100405.03;130206;1270;108846;-76
2022/06/12 14:12:15;;;;;;;3.90;3.50;;;;;;;25.24;47.63;100406.01;130121;1271;108846;-76
2022/06/12 14:15:38;;;;;;;4.20;3.30;;;;;;;25.29;47.73;100400.83;130161;1270;108123;-75
2022/06/12 14:18:55;;;;;;;3.60;3.20;;;;;;;25.33;47.58;100401.19;130127;1271;108738;-75
2022/06/12 14:22:16;;;;;;;3.90;3.40;;;;;;;25.32;47.24;100398.31;130343;1271;108841;-77
2022/06/12 14:25:26;;;;;;;4.40;3.70;;;;;;;25.26;46.45;100399.98;130368;1271;108894;-77
2022/06/12 14:28:37;;;;;;;4.10;2.90;;;;;;;25.19;47.06;100397.84;130214;1271;108704;-77
2022/06/12 14:31:42;;;;;;;3.40;3.10;;;;;;;25.20;47.10;100391.97;130202;1269;108707;-77
2022/06/12 14:35:02;;;;;;;4.20;3.20;;;;;;;25.16;46.57;100386.00;130146;1270;108568;-77
2022/06/12 14:38:19;;;;;;;4.00;3.10;;;;;;;25.08;46.56;100387.27;130182;1270;108697;-77
2022/06/12 14:41:27;;;;;;;3.30;3.00;;;;;;;25.06;46.52;100373.48;130290;1270;108643;-76
2022/06/12 14:44:33;;;;;;;3.30;3.00;;;;;;;25.08;46.65;100367.63;130280;1271;107664;-76